F\v Desperado — FVFQ — position and weather

sailwx.info

Track history (hours):
 
Tides and Currents Weather Stations Pressure Air Temp Water Temp Dewpoint Dewpoint Depression Visibility Wind Speed Wind Dir Waves Ship Positions

F\v Desperado

Last reported at 2016-Jun-29 23:33 UTC. Time now 2016-Jun-29 23:47 UTC.
Position N 46°28' W 001°48'.

Type: Fishing. MMSI: 228312000.

Date/timePositionNaut miles runAvg speedWind from/ knotsBaromVisibWave heightAir tempDewpointWater temp
2016-Jun-29 23:33N 46°28' W 001°48'2 1.8
2016-Jun-29 22:33N 46°30' W 001°47'3 2.9
2016-Jun-29 21:33N 46°27' W 001°49'15 0.3
2016-Jun-27 18:17N 46°18' W 002°06'6 7.6
2016-Jun-27 17:33N 46°21' W 001°60'8 7.6
2016-Jun-27 16:33N 46°26' W 001°51'5 4.5
2016-Jun-27 15:33N 46°30' W 001°47'0 0.2
2016-Jun-27 14:33N 46°30' W 001°47'0 0.0
2016-Jun-27 13:33N 46°30' W 001°47'0 0.0
2016-Jun-27 12:33N 46°30' W 001°47'0 0.0
2016-Jun-27 11:33N 46°30' W 001°47'0 0.0
2016-Jun-27 10:33N 46°30' W 001°47'0 0.0
2016-Jun-27 09:33N 46°30' W 001°47'0 0.0
2016-Jun-27 08:33N 46°30' W 001°47'0 0.0
2016-Jun-27 07:34N 46°30' W 001°47'0 0.0
2016-Jun-27 06:33N 46°30' W 001°47'0 0.0
2016-Jun-27 05:33N 46°30' W 001°47'0 0.0
2016-Jun-27 04:33N 46°30' W 001°47'0 0.0
2016-Jun-27 03:33N 46°30' W 001°47'0 0.0
2016-Jun-27 02:33N 46°30' W 001°47'0 0.0
2016-Jun-27 01:33N 46°30' W 001°47'0 0.0
2016-Jun-27 00:33N 46°30' W 001°47'0 0.0
2016-Jun-26 23:33N 46°30' W 001°47'0 0.0
2016-Jun-26 22:33N 46°30' W 001°47'0 0.0
2016-Jun-26 21:33N 46°30' W 001°47'0 0.0
2016-Jun-26 20:33N 46°30' W 001°47'0 0.0
2016-Jun-26 19:33N 46°30' W 001°47'0 0.0
2016-Jun-26 18:33N 46°30' W 001°47'0 0.0
2016-Jun-26 17:33N 46°30' W 001°47'0 0.0
2016-Jun-26 16:33N 46°30' W 001°47'0 0.0
2016-Jun-26 15:33N 46°30' W 001°47'0 0.0
2016-Jun-26 14:33N 46°30' W 001°47'0 0.0
2016-Jun-26 13:33N 46°30' W 001°47'0 0.0
2016-Jun-26 12:33N 46°30' W 001°47'0 0.0
2016-Jun-26 11:33N 46°30' W 001°47'0 0.0
2016-Jun-26 10:33N 46°30' W 001°47'0 0.0
2016-Jun-26 09:33N 46°30' W 001°47'0 0.0
2016-Jun-26 08:33N 46°30' W 001°47'0 0.0
2016-Jun-26 07:33N 46°30' W 001°47'0 0.0
2016-Jun-26 06:33N 46°30' W 001°47'0 0.0
2016-Jun-26 05:33N 46°30' W 001°47'0 0.0
2016-Jun-26 04:33N 46°30' W 001°47'0 0.0
2016-Jun-26 03:33N 46°30' W 001°47'0 0.0
2016-Jun-26 02:33N 46°30' W 001°47'0 0.0
2016-Jun-26 01:33N 46°30' W 001°47'0 0.0
2016-Jun-26 00:33N 46°30' W 001°47'0 0.0
2016-Jun-25 23:33N 46°30' W 001°47'0 0.0
2016-Jun-25 22:33N 46°30' W 001°47'0 0.0
2016-Jun-25 21:33N 46°30' W 001°47'0 0.0
2016-Jun-25 20:33N 46°30' W 001°47'0 0.0
2016-Jun-25 19:33N 46°30' W 001°47'0 0.0
2016-Jun-25 18:33N 46°30' W 001°47'0 0.0
2016-Jun-25 17:33N 46°30' W 001°47'0 0.4
2016-Jun-25 16:33N 46°30' W 001°48'4 3.5
2016-Jun-25 15:33N 46°26' W 001°50'13 0.9
2016-Jun-25 00:20N 46°19' W 002°06'7 8.1
2016-Jun-24 23:32N 46°23' W 001°58'8 8.1
2016-Jun-24 22:33N 46°27' W 001°49'3 2.8
2016-Jun-24 21:33N 46°30' W 001°47'5 4.5
2016-Jun-24 20:34N 46°26' W 001°51'38 4.0
2016-Jun-24 11:15N 46°08' W 002°38'4 2.1
2016-Jun-24 09:12N 46°04' W 002°35'3 3.6
2016-Jun-24 08:25N 46°07' W 002°37'3 3.3
2016-Jun-24 07:31N 46°07' W 002°33'4 3.8
2016-Jun-24 06:31N 46°09' W 002°28'14 6.9
2016-Jun-24 04:30N 46°18' W 002°12'8 8.2
2016-Jun-24 03:33N 46°22' W 002°03'8 7.9
2016-Jun-24 02:33N 46°26' W 001°53'6 5.5
2016-Jun-24 01:33N 46°30' W 001°47'0 0.0
2016-Jun-24 00:33N 46°30' W 001°47'0 0.0
2016-Jun-23 23:33N 46°30' W 001°47'0 0.0
2016-Jun-23 22:33N 46°30' W 001°47'3 3.0
2016-Jun-23 21:33N 46°27' W 001°49'40 5.5
2016-Jun-23 14:15N 46°11' W 002°42'2 3.4
2016-Jun-23 13:33N 46°13' W 002°42'3 0.3
2016-Jun-23 05:25N 46°16' W 002°41'3 2.9
2016-Jun-23 04:33N 46°18' W 002°42'3 3.0
2016-Jun-23 03:34N 46°21' W 002°40'15 2.3
2016-Jun-22 21:09N 46°29' W 002°58'6 3.5
2016-Jun-22 19:22N 46°34' W 003°04'2 2.1
2016-Jun-22 18:28N 46°36' W 003°05'11 1.8
2016-Jun-22 12:06N 46°43' W 003°17'9 3.0
2016-Jun-22 09:12N 46°52' W 003°20'3 3.4
2016-Jun-22 08:21N 46°55' W 003°20'3 3.2
2016-Jun-22 07:27N 46°58' W 003°21'3 3.5
2016-Jun-22 06:33N 47°01' W 003°21'4 3.8
2016-Jun-22 05:33N 47°04' W 003°23'8 8.3
2016-Jun-22 04:34N 47°11' W 003°29'8 8.3
2016-Jun-22 03:33N 47°19' W 003°35'8 8.2
2016-Jun-22 02:33N 47°26' W 003°41'9 8.3
2016-Jun-22 01:29N 47°33' W 003°48'  
Track history (hours):
 
Tides and Currents Weather Stations Pressure Air Temp Water Temp Dewpoint Dewpoint Depression Visibility Wind Speed Wind Dir Waves Ship Positions

F\v Desperado

Last reported at 2016-Jun-29 23:33 UTC. Time now 2016-Jun-29 23:47 UTC.
Position N 46°28' W 001°48'.

Type: Fishing. MMSI: 228312000.

Date/timePositionNaut miles runAvg speedWind from/ knotsBaromVisibWave heightAir tempDewpointWater temp
2016-Jun-29 23:33N 46°28' W 001°48'2 1.8
2016-Jun-29 22:33N 46°30' W 001°47'3 2.9
2016-Jun-29 21:33N 46°27' W 001°49'15 0.3
2016-Jun-27 18:17N 46°18' W 002°06'6 7.6
2016-Jun-27 17:33N 46°21' W 001°60'8 7.6
2016-Jun-27 16:33N 46°26' W 001°51'5 4.5
2016-Jun-27 15:33N 46°30' W 001°47'0 0.2
2016-Jun-27 14:33N 46°30' W 001°47'0 0.0
2016-Jun-27 13:33N 46°30' W 001°47'0 0.0
2016-Jun-27 12:33N 46°30' W 001°47'0 0.0
2016-Jun-27 11:33N 46°30' W 001°47'0 0.0
2016-Jun-27 10:33N 46°30' W 001°47'0 0.0
2016-Jun-27 09:33N 46°30' W 001°47'0 0.0
2016-Jun-27 08:33N 46°30' W 001°47'0 0.0
2016-Jun-27 07:34N 46°30' W 001°47'0 0.0
2016-Jun-27 06:33N 46°30' W 001°47'0 0.0
2016-Jun-27 05:33N 46°30' W 001°47'0 0.0
2016-Jun-27 04:33N 46°30' W 001°47'0 0.0
2016-Jun-27 03:33N 46°30' W 001°47'0 0.0
2016-Jun-27 02:33N 46°30' W 001°47'0 0.0
2016-Jun-27 01:33N 46°30' W 001°47'0 0.0
2016-Jun-27 00:33N 46°30' W 001°47'0 0.0
2016-Jun-26 23:33N 46°30' W 001°47'0 0.0
2016-Jun-26 22:33N 46°30' W 001°47'0 0.0
2016-Jun-26 21:33N 46°30' W 001°47'0 0.0
2016-Jun-26 20:33N 46°30' W 001°47'0 0.0
2016-Jun-26 19:33N 46°30' W 001°47'0 0.0
2016-Jun-26 18:33N 46°30' W 001°47'0 0.0
2016-Jun-26 17:33N 46°30' W 001°47'0 0.0
2016-Jun-26 16:33N 46°30' W 001°47'0 0.0
2016-Jun-26 15:33N 46°30' W 001°47'0 0.0
2016-Jun-26 14:33N 46°30' W 001°47'0 0.0
2016-Jun-26 13:33N 46°30' W 001°47'0 0.0
2016-Jun-26 12:33N 46°30' W 001°47'0 0.0
2016-Jun-26 11:33N 46°30' W 001°47'0 0.0
2016-Jun-26 10:33N 46°30' W 001°47'0 0.0
2016-Jun-26 09:33N 46°30' W 001°47'0 0.0
2016-Jun-26 08:33N 46°30' W 001°47'0 0.0
2016-Jun-26 07:33N 46°30' W 001°47'0 0.0
2016-Jun-26 06:33N 46°30' W 001°47'0 0.0
2016-Jun-26 05:33N 46°30' W 001°47'0 0.0
2016-Jun-26 04:33N 46°30' W 001°47'0 0.0
2016-Jun-26 03:33N 46°30' W 001°47'0 0.0
2016-Jun-26 02:33N 46°30' W 001°47'0 0.0
2016-Jun-26 01:33N 46°30' W 001°47'0 0.0
2016-Jun-26 00:33N 46°30' W 001°47'0 0.0
2016-Jun-25 23:33N 46°30' W 001°47'0 0.0
2016-Jun-25 22:33N 46°30' W 001°47'0 0.0
2016-Jun-25 21:33N 46°30' W 001°47'0 0.0
2016-Jun-25 20:33N 46°30' W 001°47'0 0.0
2016-Jun-25 19:33N 46°30' W 001°47'0 0.0
2016-Jun-25 18:33N 46°30' W 001°47'0 0.0
2016-Jun-25 17:33N 46°30' W 001°47'0 0.4
2016-Jun-25 16:33N 46°30' W 001°48'4 3.5
2016-Jun-25 15:33N 46°26' W 001°50'13 0.9
2016-Jun-25 00:20N 46°19' W 002°06'7 8.1
2016-Jun-24 23:32N 46°23' W 001°58'8 8.1
2016-Jun-24 22:33N 46°27' W 001°49'3 2.8
2016-Jun-24 21:33N 46°30' W 001°47'5 4.5
2016-Jun-24 20:34N 46°26' W 001°51'38 4.0
2016-Jun-24 11:15N 46°08' W 002°38'4 2.1
2016-Jun-24 09:12N 46°04' W 002°35'3 3.6
2016-Jun-24 08:25N 46°07' W 002°37'3 3.3
2016-Jun-24 07:31N 46°07' W 002°33'4 3.8
2016-Jun-24 06:31N 46°09' W 002°28'14 6.9
2016-Jun-24 04:30N 46°18' W 002°12'8 8.2
2016-Jun-24 03:33N 46°22' W 002°03'8 7.9
2016-Jun-24 02:33N 46°26' W 001°53'6 5.5
2016-Jun-24 01:33N 46°30' W 001°47'0 0.0
2016-Jun-24 00:33N 46°30' W 001°47'0 0.0
2016-Jun-23 23:33N 46°30' W 001°47'0 0.0
2016-Jun-23 22:33N 46°30' W 001°47'3 3.0
2016-Jun-23 21:33N 46°27' W 001°49'40 5.5
2016-Jun-23 14:15N 46°11' W 002°42'2 3.4
2016-Jun-23 13:33N 46°13' W 002°42'3 0.3
2016-Jun-23 05:25N 46°16' W 002°41'3 2.9
2016-Jun-23 04:33N 46°18' W 002°42'3 3.0
2016-Jun-23 03:34N 46°21' W 002°40'15 2.3
2016-Jun-22 21:09N 46°29' W 002°58'6 3.5
2016-Jun-22 19:22N 46°34' W 003°04'2 2.1
2016-Jun-22 18:28N 46°36' W 003°05'11 1.8
2016-Jun-22 12:06N 46°43' W 003°17'9 3.0
2016-Jun-22 09:12N 46°52' W 003°20'3 3.4
2016-Jun-22 08:21N 46°55' W 003°20'3 3.2
2016-Jun-22 07:27N 46°58' W 003°21'3 3.5
2016-Jun-22 06:33N 47°01' W 003°21'4 3.8
2016-Jun-22 05:33N 47°04' W 003°23'8 8.3
2016-Jun-22 04:34N 47°11' W 003°29'8 8.3
2016-Jun-22 03:33N 47°19' W 003°35'8 8.2
2016-Jun-22 02:33N 47°26' W 003°41'9 8.3
2016-Jun-22 01:29N 47°33' W 003°48'  

Dump ship's entire track history